sensor_id;sensor_type;location;lat;lon;timestamp;temperature;humidity
46123;DHT22;31856;-35.404;149.120;2023-02-28T03:53:54;27.50;41.00
46123;DHT22;31856;-35.404;149.120;2023-02-28T04:01:40;27.80;41.10
46123;DHT22;31856;-35.404;149.120;2023-02-28T04:04:12;27.90;40.60
46123;DHT22;31856;-35.404;149.120;2023-02-28T04:06:42;27.90;41.60
46123;DHT22;31856;-35.404;149.120;2023-02-28T04:09:12;27.80;37.80
46123;DHT22;31856;-35.404;149.120;2023-02-28T04:11:43;27.90;37.40
46123;DHT22;31856;-35.404;149.120;2023-02-28T04:14:13;28.00;38.60
46123;DHT22;31856;-35.404;149.120;2023-02-28T04:16:43;28.00;38.50
46123;DHT22;31856;-35.404;149.120;2023-02-28T04:19:13;28.10;38.60
46123;DHT22;31856;-35.404;149.120;2023-02-28T04:21:45;28.10;39.00
46123;DHT22;31856;-35.404;149.120;2023-02-28T04:24:16;28.10;38.20
46123;DHT22;31856;-35.404;149.120;2023-02-28T04:26:47;28.20;38.70
46123;DHT22;31856;-35.404;149.120;2023-02-28T04:29:21;28.30;38.10
46123;DHT22;31856;-35.404;149.120;2023-02-28T04:31:51;28.20;38.20
46123;DHT22;31856;-35.404;149.120;2023-02-28T04:34:27;28.20;38.50
46123;DHT22;31856;-35.404;149.120;2023-02-28T04:36:56;28.20;39.20
46123;DHT22;31856;-35.404;149.120;2023-02-28T04:39:39;28.20;39.70
46123;DHT22;31856;-35.404;149.120;2023-02-28T04:42:10;28.30;39.90
46123;DHT22;31856;-35.404;149.120;2023-02-28T04:44:40;28.40;39.20
46123;DHT22;31856;-35.404;149.120;2023-02-28T04:47:10;28.50;39.60
46123;DHT22;31856;-35.404;149.120;2023-02-28T04:49:39;28.70;39.40
46123;DHT22;31856;-35.404;149.120;2023-02-28T04:52:10;28.80;39.10
46123;DHT22;31856;-35.404;149.120;2023-02-28T04:54:39;28.80;38.70
46123;DHT22;31856;-35.404;149.120;2023-02-28T04:57:09;28.70;37.50
46123;DHT22;31856;-35.404;149.120;2023-02-28T04:59:38;28.60;37.70
46123;DHT22;31856;-35.404;149.120;2023-02-28T05:02:08;28.60;37.90
46123;DHT22;31856;-35.404;149.120;2023-02-28T05:04:37;28.50;37.60
46123;DHT22;31856;-35.404;149.120;2023-02-28T05:07:07;28.60;37.60
46123;DHT22;31856;-35.404;149.120;2023-02-28T05:09:36;28.50;38.00
46123;DHT22;31856;-35.404;149.120;2023-02-28T05:12:07;28.30;38.30
46123;DHT22;31856;-35.404;149.120;2023-02-28T05:14:38;28.20;38.50
46123;DHT22;31856;-35.404;149.120;2023-02-28T05:17:08;28.20;38.30
46123;DHT22;31856;-35.404;149.120;2023-02-28T05:19:37;28.30;38.30
46123;DHT22;31856;-35.404;149.120;2023-02-28T05:22:11;28.40;38.40
46123;DHT22;31856;-35.404;149.120;2023-02-28T05:24:42;28.60;39.50
46123;DHT22;31856;-35.404;149.120;2023-02-28T05:27:11;28.70;38.80
46123;DHT22;31856;-35.404;149.120;2023-02-28T05:29:42;28.70;37.60
46123;DHT22;31856;-35.404;149.120;2023-02-28T05:32:14;28.60;38.20
46123;DHT22;31856;-35.404;149.120;2023-02-28T05:34:44;28.60;38.00
46123;DHT22;31856;-35.404;149.120;2023-02-28T05:37:14;28.60;38.80
46123;DHT22;31856;-35.404;149.120;2023-02-28T05:39:44;28.70;38.50
46123;DHT22;31856;-35.404;149.120;2023-02-28T05:42:14;28.70;38.30
46123;DHT22;31856;-35.404;149.120;2023-02-28T05:44:43;28.70;38.80
46123;DHT22;31856;-35.404;149.120;2023-02-28T05:47:12;28.50;38.20
46123;DHT22;31856;-35.404;149.120;2023-02-28T05:49:44;28.50;37.80
46123;DHT22;31856;-35.404;149.120;2023-02-28T05:52:14;28.60;38.40
46123;DHT22;31856;-35.404;149.120;2023-02-28T05:54:44;28.50;38.60
46123;DHT22;31856;-35.404;149.120;2023-02-28T05:57:15;28.50;37.20
46123;DHT22;31856;-35.404;149.120;2023-02-28T05:59:50;28.40;37.50
46123;DHT22;31856;-35.404;149.120;2023-02-28T06:02:24;28.50;37.90
46123;DHT22;31856;-35.404;149.120;2023-02-28T06:04:53;28.50;37.70
46123;DHT22;31856;-35.404;149.120;2023-02-28T06:07:23;28.60;38.00
46123;DHT22;31856;-35.404;149.120;2023-02-28T06:09:52;28.80;38.00
46123;DHT22;31856;-35.404;149.120;2023-02-28T06:12:21;28.90;37.80
46123;DHT22;31856;-35.404;149.120;2023-02-28T06:14:51;28.80;37.40
46123;DHT22;31856;-35.404;149.120;2023-02-28T06:17:20;28.70;37.40
46123;DHT22;31856;-35.404;149.120;2023-02-28T06:19:50;28.50;37.50
46123;DHT22;31856;-35.404;149.120;2023-02-28T06:22:19;28.60;37.60
46123;DHT22;31856;-35.404;149.120;2023-02-28T06:24:48;28.60;38.40
46123;DHT22;31856;-35.404;149.120;2023-02-28T06:27:18;28.60;38.70
46123;DHT22;31856;-35.404;149.120;2023-02-28T06:29:53;28.60;38.50
46123;DHT22;31856;-35.404;149.120;2023-02-28T06:32:22;28.70;38.50
46123;DHT22;31856;-35.404;149.120;2023-02-28T06:34:53;28.80;37.60
46123;DHT22;31856;-35.404;149.120;2023-02-28T06:37:23;28.80;37.30
46123;DHT22;31856;-35.404;149.120;2023-02-28T06:39:54;28.80;37.30
46123;DHT22;31856;-35.404;149.120;2023-02-28T06:42:26;28.70;37.50
46123;DHT22;31856;-35.404;149.120;2023-02-28T06:44:57;28.60;37.10
46123;DHT22;31856;-35.404;149.120;2023-02-28T06:47:27;28.50;37.10
46123;DHT22;31856;-35.404;149.120;2023-02-28T06:49:57;28.20;37.30
46123;DHT22;31856;-35.404;149.120;2023-02-28T06:52:33;28.00;38.10
46123;DHT22;31856;-35.404;149.120;2023-02-28T06:55:05;27.80;38.60
46123;DHT22;31856;-35.404;149.120;2023-02-28T06:57:44;27.70;39.20
46123;DHT22;31856;-35.404;149.120;2023-02-28T07:00:28;27.60;38.30
46123;DHT22;31856;-35.404;149.120;2023-02-28T07:03:01;27.50;38.80
46123;DHT22;31856;-35.404;149.120;2023-02-28T07:05:36;27.40;39.00
46123;DHT22;31856;-35.404;149.120;2023-02-28T07:08:12;27.30;39.30
46123;DHT22;31856;-35.404;149.120;2023-02-28T07:13:55;27.20;39.70
46123;DHT22;31856;-35.404;149.120;2023-02-28T07:16:24;27.00;39.70
46123;DHT22;31856;-35.404;149.120;2023-02-28T07:19:11;26.90;39.80
46123;DHT22;31856;-35.404;149.120;2023-02-28T07:21:40;26.90;40.10
46123;DHT22;31856;-35.404;149.120;2023-02-28T07:24:10;26.80;40.60
46123;DHT22;31856;-35.404;149.120;2023-02-28T07:26:44;26.70;40.90
46123;DHT22;31856;-35.404;149.120;2023-02-28T07:29:14;26.60;41.30
46123;DHT22;31856;-35.404;149.120;2023-02-28T07:31:43;26.50;41.40
46123;DHT22;31856;-35.404;149.120;2023-02-28T07:34:13;26.40;41.90
46123;DHT22;31856;-35.404;149.120;2023-02-28T12:25:02;21.40;72.20
46123;DHT22;31856;-35.404;149.120;2023-02-28T12:27:43;21.40;72.40
46123;DHT22;31856;-35.404;149.120;2023-02-28T12:33:10;21.40;72.00
46123;DHT22;31856;-35.404;149.120;2023-02-28T12:38:28;21.30;72.60
46123;DHT22;31856;-35.404;149.120;2023-02-28T12:44:01;21.30;72.70
46123;DHT22;31856;-35.404;149.120;2023-02-28T12:46:30;21.30;72.30
46123;DHT22;31856;-35.404;149.120;2023-02-28T12:49:05;21.30;72.50
46123;DHT22;31856;-35.404;149.120;2023-02-28T12:51:35;21.30;72.50
46123;DHT22;31856;-35.404;149.120;2023-02-28T12:59:38;21.10;73.30
46123;DHT22;31856;-35.404;149.120;2023-02-28T13:10:00;20.80;73.70
46123;DHT22;31856;-35.404;149.120;2023-02-28T13:12:31;20.80;74.60
46123;DHT22;31856;-35.404;149.120;2023-02-28T13:18:20;20.70;74.40
